Terminal Aerodrome Forecast
Issued by NWS

Home | Current Version | Previous Version | Text Only | Print | Product List | Glossary On
Versions: 1 2 3 4 5 6 7 8 9 10 11 12 13 14 15 16
000
FTAK31 PAJN 190811 AAA
TAFASI
TAF AMD
PASI 190811Z 1908/2006 14012KT P6SM -SHRA BKN040 OVC060
     FM190900 24010KT 6SM -SHRA BR OVC035
     FM191500 24006KT P6SM VCSH SCT015 OVC035
     FM192300 24006KT P6SM SCT015 OVC035=

USA.gov is the U.S. government's official web portal to all federal, state and local government web resources and services.